sensor_id;sensor_type;location;lat;lon;timestamp;pressure;altitude;pressure_sealevel;temperature;humidity
10897;BME280;5501;51.176;6.470;2023-03-23T00:02:14;99882.75;;;14.02;86.54
10897;BME280;5501;51.176;6.470;2023-03-23T00:07:15;99869.53;;;13.99;86.77
10897;BME280;5501;51.176;6.470;2023-03-23T00:12:24;99879.56;;;13.95;87.17
10897;BME280;5501;51.176;6.470;2023-03-23T00:17:29;99868.59;;;14.00;86.83
10897;BME280;5501;51.176;6.470;2023-03-23T00:22:30;99870.38;;;13.84;88.23
10897;BME280;5501;51.176;6.470;2023-03-23T00:27:30;99870.31;;;14.01;86.94
10897;BME280;5501;51.176;6.470;2023-03-23T00:32:31;99879.63;;;13.94;87.62
10897;BME280;5501;51.176;6.470;2023-03-23T00:37:31;99868.00;;;13.95;88.06
10897;BME280;5501;51.176;6.470;2023-03-23T00:42:33;99852.03;;;13.93;87.69
10897;BME280;5501;51.176;6.470;2023-03-23T00:47:37;99843.13;;;13.93;88.35
10897;BME280;5501;51.176;6.470;2023-03-23T00:52:38;99852.91;;;13.94;87.78
10897;BME280;5501;51.176;6.470;2023-03-23T00:57:38;99854.94;;;13.89;88.01
10897;BME280;5501;51.176;6.470;2023-03-23T01:02:38;99863.22;;;13.84;88.40
10897;BME280;5501;51.176;6.470;2023-03-23T01:07:40;99860.13;;;13.92;87.68
10897;BME280;5501;51.176;6.470;2023-03-23T01:12:43;99856.50;;;13.93;87.57
10897;BME280;5501;51.176;6.470;2023-03-23T01:17:44;99865.91;;;13.84;88.32
10897;BME280;5501;51.176;6.470;2023-03-23T01:22:44;99845.38;;;13.85;89.64
10897;BME280;5501;51.176;6.470;2023-03-23T01:27:46;99816.13;;;13.66;93.07
10897;BME280;5501;51.176;6.470;2023-03-23T01:32:46;99835.41;;;13.56;95.68
10897;BME280;5501;51.176;6.470;2023-03-23T01:37:47;99826.47;;;13.57;95.35
10897;BME280;5501;51.176;6.470;2023-03-23T01:42:48;99814.38;;;13.50;96.55
10897;BME280;5501;51.176;6.470;2023-03-23T01:47:55;99775.94;;;13.37;97.69
10897;BME280;5501;51.176;6.470;2023-03-23T01:52:57;99758.34;;;13.33;98.33
10897;BME280;5501;51.176;6.470;2023-03-23T01:57:59;99813.28;;;13.54;96.94
10897;BME280;5501;51.176;6.470;2023-03-23T02:03:00;99811.25;;;13.42;97.79
10897;BME280;5501;51.176;6.470;2023-03-23T02:08:02;99793.50;;;13.41;97.81
10897;BME280;5501;51.176;6.470;2023-03-23T02:13:08;99776.09;;;13.34;98.50
10897;BME280;5501;51.176;6.470;2023-03-23T02:18:19;99785.22;;;13.30;98.45
10897;BME280;5501;51.176;6.470;2023-03-23T02:23:33;99771.97;;;13.44;97.42
10897;BME280;5501;51.176;6.470;2023-03-23T02:33:56;99769.72;;;13.36;97.11
10897;BME280;5501;51.176;6.470;2023-03-23T02:39:08;99774.53;;;13.30;97.11
10897;BME280;5501;51.176;6.470;2023-03-23T02:44:10;99758.59;;;13.28;96.73
10897;BME280;5501;51.176;6.470;2023-03-23T02:49:12;99774.84;;;13.24;96.42
10897;BME280;5501;51.176;6.470;2023-03-23T02:54:16;99765.72;;;13.28;95.57
10897;BME280;5501;51.176;6.470;2023-03-23T02:59:17;99776.25;;;13.31;94.75
10897;BME280;5501;51.176;6.470;2023-03-23T03:04:19;99761.94;;;13.32;94.33
10897;BME280;5501;51.176;6.470;2023-03-23T03:14:31;99758.16;;;13.36;93.73
10897;BME280;5501;51.176;6.470;2023-03-23T03:19:37;99760.50;;;13.42;93.84
10897;BME280;5501;51.176;6.470;2023-03-23T03:24:39;99745.59;;;13.38;93.66
10897;BME280;5501;51.176;6.470;2023-03-23T03:29:41;99750.59;;;13.44;94.15
10897;BME280;5501;51.176;6.470;2023-03-23T03:34:42;99752.66;;;13.39;94.73
10897;BME280;5501;51.176;6.470;2023-03-23T03:39:43;99752.16;;;13.48;94.43
10897;BME280;5501;51.176;6.470;2023-03-23T03:44:44;99746.66;;;13.51;93.93
10897;BME280;5501;51.176;6.470;2023-03-23T03:49:45;99754.06;;;13.46;93.70
10897;BME280;5501;51.176;6.470;2023-03-23T03:54:45;99753.63;;;13.38;93.74
10897;BME280;5501;51.176;6.470;2023-03-23T03:59:46;99753.16;;;13.30;94.56
10897;BME280;5501;51.176;6.470;2023-03-23T04:05:10;99758.88;;;13.39;93.41
10897;BME280;5501;51.176;6.470;2023-03-23T04:10:12;99750.59;;;13.44;93.14
10897;BME280;5501;51.176;6.470;2023-03-23T04:15:19;99752.50;;;13.42;92.96
10897;BME280;5501;51.176;6.470;2023-03-23T04:20:21;99752.34;;;13.45;92.65
10897;BME280;5501;51.176;6.470;2023-03-23T04:25:23;99763.50;;;13.36;93.26
10897;BME280;5501;51.176;6.470;2023-03-23T04:30:26;99768.84;;;13.36;92.68
10897;BME280;5501;51.176;6.470;2023-03-23T04:35:43;99778.19;;;13.44;92.24
10897;BME280;5501;51.176;6.470;2023-03-23T04:41:08;99782.31;;;13.50;91.63
10897;BME280;5501;51.176;6.470;2023-03-23T04:46:22;99784.72;;;13.39;91.83
10897;BME280;5501;51.176;6.470;2023-03-23T04:51:26;99790.75;;;13.42;91.76
10897;BME280;5501;51.176;6.470;2023-03-23T04:56:28;99791.75;;;13.40;91.80
10897;BME280;5501;51.176;6.470;2023-03-23T05:01:30;99794.88;;;13.48;91.27
10897;BME280;5501;51.176;6.470;2023-03-23T05:06:51;99790.56;;;13.45;91.22
10897;BME280;5501;51.176;6.470;2023-03-23T05:11:57;99789.88;;;13.42;91.30
10897;BME280;5501;51.176;6.470;2023-03-23T05:17:00;99790.41;;;13.33;92.04
10897;BME280;5501;51.176;6.470;2023-03-23T05:22:01;99790.75;;;13.42;91.72
10897;BME280;5501;51.176;6.470;2023-03-23T05:27:05;99805.31;;;13.37;91.50
10897;BME280;5501;51.176;6.470;2023-03-23T05:32:09;99796.00;;;13.44;91.40
10897;BME280;5501;51.176;6.470;2023-03-23T05:37:13;99809.16;;;13.31;91.86
10897;BME280;5501;51.176;6.470;2023-03-23T05:42:23;99810.19;;;13.29;92.01
10897;BME280;5501;51.176;6.470;2023-03-23T05:47:32;99815.34;;;13.32;91.50
10897;BME280;5501;51.176;6.470;2023-03-23T05:52:39;99818.13;;;13.30;91.50
10897;BME280;5501;51.176;6.470;2023-03-23T05:57:43;99818.34;;;13.26;91.32
10897;BME280;5501;51.176;6.470;2023-03-23T06:02:57;99826.75;;;13.35;90.96
10897;BME280;5501;51.176;6.470;2023-03-23T06:08:07;99829.50;;;13.34;90.50
10897;BME280;5501;51.176;6.470;2023-03-23T06:13:07;99836.72;;;13.32;90.49
10897;BME280;5501;51.176;6.470;2023-03-23T06:18:17;99841.25;;;13.47;89.71
10897;BME280;5501;51.176;6.470;2023-03-23T06:23:26;99837.63;;;13.48;88.84
10897;BME280;5501;51.176;6.470;2023-03-23T06:28:27;99844.97;;;13.60;87.77
10897;BME280;5501;51.176;6.470;2023-03-23T06:33:29;99844.72;;;13.49;88.21
10897;BME280;5501;51.176;6.470;2023-03-23T06:38:52;99847.50;;;13.63;87.27
10897;BME280;5501;51.176;6.470;2023-03-23T06:44:00;99852.25;;;13.73;87.22
10897;BME280;5501;51.176;6.470;2023-03-23T06:49:04;99860.03;;;13.78;86.17
10897;BME280;5501;51.176;6.470;2023-03-23T06:54:15;99861.31;;;13.71;86.47
10897;BME280;5501;51.176;6.470;2023-03-23T06:59:17;99861.00;;;13.60;86.97
10897;BME280;5501;51.176;6.470;2023-03-23T07:04:18;99865.78;;;13.70;86.15
10897;BME280;5501;51.176;6.470;2023-03-23T07:09:27;99867.88;;;13.81;85.68
10897;BME280;5501;51.176;6.470;2023-03-23T07:14:27;99873.94;;;13.84;85.26
10897;BME280;5501;51.176;6.470;2023-03-23T07:19:28;99873.56;;;13.90;84.58
10897;BME280;5501;51.176;6.470;2023-03-23T07:24:28;99874.78;;;13.85;84.99
10897;BME280;5501;51.176;6.470;2023-03-23T07:29:40;99873.72;;;13.72;84.95
10897;BME280;5501;51.176;6.470;2023-03-23T07:34:47;99866.44;;;13.91;84.39
10897;BME280;5501;51.176;6.470;2023-03-23T07:40:17;99886.69;;;13.79;83.78
10897;BME280;5501;51.176;6.470;2023-03-23T07:45:22;99883.44;;;13.90;83.54
10897;BME280;5501;51.176;6.470;2023-03-23T07:50:23;99871.34;;;13.83;83.13
10897;BME280;5501;51.176;6.470;2023-03-23T07:55:26;99873.78;;;14.03;81.98
10897;BME280;5501;51.176;6.470;2023-03-23T08:00:38;99882.75;;;14.17;81.56
10897;BME280;5501;51.176;6.470;2023-03-23T08:05:41;99886.88;;;14.24;80.70
10897;BME280;5501;51.176;6.470;2023-03-23T08:11:22;99888.22;;;14.31;79.68
10897;BME280;5501;51.176;6.470;2023-03-23T08:17:01;99888.13;;;14.33;79.62
10897;BME280;5501;51.176;6.470;2023-03-23T08:22:11;99891.44;;;14.38;78.17
10897;BME280;5501;51.176;6.470;2023-03-23T08:27:30;99884.38;;;14.52;77.77
10897;BME280;5501;51.176;6.470;2023-03-23T08:32:50;99883.66;;;14.64;77.53
10897;BME280;5501;51.176;6.470;2023-03-23T08:38:17;99886.84;;;14.40;77.92
10897;BME280;5501;51.176;6.470;2023-03-23T08:43:40;99901.16;;;14.70;76.77
10897;BME280;5501;51.176;6.470;2023-03-23T08:48:54;99919.47;;;14.62;77.09
10897;BME280;5501;51.176;6.470;2023-03-23T08:53:55;99906.44;;;14.56;76.37
10897;BME280;5501;51.176;6.470;2023-03-23T08:58:55;99901.25;;;14.53;76.83
10897;BME280;5501;51.176;6.470;2023-03-23T09:04:07;99904.72;;;14.70;76.00
10897;BME280;5501;51.176;6.470;2023-03-23T09:09:32;99913.06;;;14.80;76.10
10897;BME280;5501;51.176;6.470;2023-03-23T09:14:34;99912.38;;;14.92;75.21
10897;BME280;5501;51.176;6.470;2023-03-23T09:19:36;99914.50;;;15.01;74.54
10897;BME280;5501;51.176;6.470;2023-03-23T09:24:36;99918.50;;;14.78;75.09
10897;BME280;5501;51.176;6.470;2023-03-23T09:29:37;99929.13;;;14.80;75.28
10897;BME280;5501;51.176;6.470;2023-03-23T09:34:38;99922.81;;;14.81;75.60
10897;BME280;5501;51.176;6.470;2023-03-23T09:39:39;99992.09;;;13.74;88.87
10897;BME280;5501;51.176;6.470;2023-03-23T09:55:02;100002.41;;;11.81;100.00
10897;BME280;5501;51.176;6.470;2023-03-23T10:00:08;99992.94;;;11.94;100.00
10897;BME280;5501;51.176;6.470;2023-03-23T10:10:25;100017.06;;;11.71;100.00
10897;BME280;5501;51.176;6.470;2023-03-23T10:15:30;100015.53;;;11.44;100.00
10897;BME280;5501;51.176;6.470;2023-03-23T10:20:35;100012.16;;;11.62;100.00
10897;BME280;5501;51.176;6.470;2023-03-23T10:25:37;100013.75;;;11.44;100.00
10897;BME280;5501;51.176;6.470;2023-03-23T10:30:41;100015.41;;;11.27;100.00
10897;BME280;5501;51.176;6.470;2023-03-23T10:35:50;100014.75;;;11.42;100.00
10897;BME280;5501;51.176;6.470;2023-03-23T10:40:54;100015.97;;;11.55;100.00
10897;BME280;5501;51.176;6.470;2023-03-23T10:45:59;100022.81;;;11.62;100.00
10897;BME280;5501;51.176;6.470;2023-03-23T10:51:02;100019.44;;;11.77;100.00
10897;BME280;5501;51.176;6.470;2023-03-23T10:56:03;100023.06;;;11.96;100.00
10897;BME280;5501;51.176;6.470;2023-03-23T11:01:04;100038.91;;;11.99;100.00
10897;BME280;5501;51.176;6.470;2023-03-23T11:06:06;100024.69;;;12.18;100.00
10897;BME280;5501;51.176;6.470;2023-03-23T11:11:08;100024.84;;;12.71;100.00
10897;BME280;5501;51.176;6.470;2023-03-23T11:16:10;100008.28;;;12.64;100.00
10897;BME280;5501;51.176;6.470;2023-03-23T11:21:11;100018.09;;;12.64;100.00
10897;BME280;5501;51.176;6.470;2023-03-23T11:26:14;100009.16;;;12.65;100.00
10897;BME280;5501;51.176;6.470;2023-03-23T11:31:20;100028.31;;;13.10;100.00
10897;BME280;5501;51.176;6.470;2023-03-23T11:36:27;100019.38;;;13.11;100.00
10897;BME280;5501;51.176;6.470;2023-03-23T11:41:32;100027.06;;;13.00;100.00
10897;BME280;5501;51.176;6.470;2023-03-23T11:46:34;100019.59;;;12.88;100.00
10897;BME280;5501;51.176;6.470;2023-03-23T11:51:42;100013.53;;;13.03;100.00
10897;BME280;5501;51.176;6.470;2023-03-23T11:56:45;100025.38;;;12.97;100.00
10897;BME280;5501;51.176;6.470;2023-03-23T12:12:12;100017.97;;;13.04;100.00
10897;BME280;5501;51.176;6.470;2023-03-23T12:38:59;100020.06;;;13.33;100.00
10897;BME280;5501;51.176;6.470;2023-03-23T12:59:33;99997.25;;;13.94;100.00
10897;BME280;5501;51.176;6.470;2023-03-23T13:04:37;99991.72;;;13.97;100.00
10897;BME280;5501;51.176;6.470;2023-03-23T13:09:50;99979.31;;;13.96;100.00
10897;BME280;5501;51.176;6.470;2023-03-23T13:25:23;99970.63;;;14.25;100.00
10897;BME280;5501;51.176;6.470;2023-03-23T13:30:29;99982.81;;;14.13;100.00
10897;BME280;5501;51.176;6.470;2023-03-23T13:35:33;99993.84;;;14.07;100.00
10897;BME280;5501;51.176;6.470;2023-03-23T13:40:35;99994.38;;;14.14;100.00
10897;BME280;5501;51.176;6.470;2023-03-23T13:45:42;99997.25;;;14.74;100.00
10897;BME280;5501;51.176;6.470;2023-03-23T13:50:48;99998.97;;;14.75;100.00
10897;BME280;5501;51.176;6.470;2023-03-23T13:55:50;100015.03;;;14.44;100.00
10897;BME280;5501;51.176;6.470;2023-03-23T14:01:02;99998.91;;;14.29;100.00
10897;BME280;5501;51.176;6.470;2023-03-23T14:06:04;99995.13;;;14.33;100.00
10897;BME280;5501;51.176;6.470;2023-03-23T14:11:14;99979.44;;;14.58;100.00
10897;BME280;5501;51.176;6.470;2023-03-23T14:16:22;99970.03;;;14.35;100.00
10897;BME280;5501;51.176;6.470;2023-03-23T14:21:34;99971.88;;;14.66;100.00
10897;BME280;5501;51.176;6.470;2023-03-23T14:26:34;99992.41;;;14.81;99.28
10897;BME280;5501;51.176;6.470;2023-03-23T14:31:36;100000.28;;;14.84;98.67
10897;BME280;5501;51.176;6.470;2023-03-23T14:36:37;100006.94;;;14.77;97.99
10897;BME280;5501;51.176;6.470;2023-03-23T14:41:37;100001.97;;;14.54;100.00
10897;BME280;5501;51.176;6.470;2023-03-23T14:46:38;100006.72;;;14.49;100.00
10897;BME280;5501;51.176;6.470;2023-03-23T14:51:46;99972.03;;;14.47;100.00
10897;BME280;5501;51.176;6.470;2023-03-23T14:56:47;99966.66;;;14.94;100.00
10897;BME280;5501;51.176;6.470;2023-03-23T15:01:48;99947.50;;;14.86;99.20
10897;BME280;5501;51.176;6.470;2023-03-23T15:06:51;99902.25;;;14.97;99.13
10897;BME280;5501;51.176;6.470;2023-03-23T15:11:58;99893.25;;;14.98;98.14
10897;BME280;5501;51.176;6.470;2023-03-23T15:17:00;99897.56;;;15.00;96.79
10897;BME280;5501;51.176;6.470;2023-03-23T15:22:33;99900.63;;;15.24;93.51
10897;BME280;5501;51.176;6.470;2023-03-23T15:32:30;99911.84;;;15.15;93.50
10897;BME280;5501;51.176;6.470;2023-03-23T15:37:31;99902.34;;;15.25;93.30
10897;BME280;5501;51.176;6.470;2023-03-23T15:42:32;99904.31;;;15.37;91.31
10897;BME280;5501;51.176;6.470;2023-03-23T15:47:34;99891.06;;;15.34;91.82
10897;BME280;5501;51.176;6.470;2023-03-23T15:52:35;99878.28;;;15.39;91.62
10897;BME280;5501;51.176;6.470;2023-03-23T15:57:36;99872.75;;;15.42;91.60
10897;BME280;5501;51.176;6.470;2023-03-23T16:02:36;99861.94;;;15.58;91.37
10897;BME280;5501;51.176;6.470;2023-03-23T16:07:38;99866.28;;;15.60;89.70
10897;BME280;5501;51.176;6.470;2023-03-23T16:12:39;99872.59;;;15.73;87.17
10897;BME280;5501;51.176;6.470;2023-03-23T16:17:41;99865.66;;;15.55;85.68
10897;BME280;5501;51.176;6.470;2023-03-23T16:22:43;99872.47;;;15.61;84.24
10897;BME280;5501;51.176;6.470;2023-03-23T16:27:44;99863.38;;;15.49;83.63
10897;BME280;5501;51.176;6.470;2023-03-23T16:32:52;99868.94;;;15.46;83.75
10897;BME280;5501;51.176;6.470;2023-03-23T16:37:58;99873.72;;;15.41;84.16
10897;BME280;5501;51.176;6.470;2023-03-23T16:43:09;99891.69;;;15.39;81.46
10897;BME280;5501;51.176;6.470;2023-03-23T16:48:12;99883.47;;;15.42;81.72
10897;BME280;5501;51.176;6.470;2023-03-23T16:53:13;99889.00;;;15.39;81.06
10897;BME280;5501;51.176;6.470;2023-03-23T16:58:16;99901.47;;;15.40;81.25
10897;BME280;5501;51.176;6.470;2023-03-23T17:03:19;99901.03;;;15.32;79.82
10897;BME280;5501;51.176;6.470;2023-03-23T17:08:21;99906.13;;;15.37;79.59
10897;BME280;5501;51.176;6.470;2023-03-23T17:13:22;99909.53;;;15.54;77.65
10897;BME280;5501;51.176;6.470;2023-03-23T17:18:25;99909.81;;;15.34;77.71
10897;BME280;5501;51.176;6.470;2023-03-23T17:23:29;99891.97;;;15.19;77.31
10897;BME280;5501;51.176;6.470;2023-03-23T17:28:30;99907.53;;;15.12;76.83
10897;BME280;5501;51.176;6.470;2023-03-23T17:33:32;99903.06;;;15.13;76.53
10897;BME280;5501;51.176;6.470;2023-03-23T17:38:34;99900.06;;;15.03;77.24
10897;BME280;5501;51.176;6.470;2023-03-23T17:43:36;99900.88;;;14.90;77.98
10897;BME280;5501;51.176;6.470;2023-03-23T17:48:39;99898.41;;;14.87;78.36
10897;BME280;5501;51.176;6.470;2023-03-23T17:53:41;99895.47;;;14.76;79.45
10897;BME280;5501;51.176;6.470;2023-03-23T17:58:43;99909.00;;;14.73;79.44
10897;BME280;5501;51.176;6.470;2023-03-23T18:03:44;99902.66;;;14.60;80.24
10897;BME280;5501;51.176;6.470;2023-03-23T18:08:46;99892.63;;;14.48;80.91
10897;BME280;5501;51.176;6.470;2023-03-23T18:13:47;99897.31;;;14.44;81.58
10897;BME280;5501;51.176;6.470;2023-03-23T18:18:49;99881.44;;;14.41;81.14
10897;BME280;5501;51.176;6.470;2023-03-23T18:23:50;99881.03;;;14.16;82.68
10897;BME280;5501;51.176;6.470;2023-03-23T18:29:00;99867.09;;;14.27;82.23
10897;BME280;5501;51.176;6.470;2023-03-23T18:34:01;99879.06;;;14.35;81.61
10897;BME280;5501;51.176;6.470;2023-03-23T18:39:03;99855.38;;;14.29;81.31
10897;BME280;5501;51.176;6.470;2023-03-23T18:44:05;99839.56;;;14.25;81.77
10897;BME280;5501;51.176;6.470;2023-03-23T18:49:07;99841.69;;;14.18;81.51
10897;BME280;5501;51.176;6.470;2023-03-23T18:54:08;99853.44;;;14.16;82.26
10897;BME280;5501;51.176;6.470;2023-03-23T18:59:10;99847.59;;;14.25;81.86
10897;BME280;5501;51.176;6.470;2023-03-23T19:04:11;99849.34;;;14.26;80.97
10897;BME280;5501;51.176;6.470;2023-03-23T19:09:14;99844.59;;;14.31;81.08
10897;BME280;5501;51.176;6.470;2023-03-23T19:14:15;99843.28;;;14.38;80.53
10897;BME280;5501;51.176;6.470;2023-03-23T19:19:18;99842.06;;;14.28;80.80
10897;BME280;5501;51.176;6.470;2023-03-23T19:24:20;99844.28;;;14.20;81.45
10897;BME280;5501;51.176;6.470;2023-03-23T19:29:21;99825.81;;;14.15;81.04
10897;BME280;5501;51.176;6.470;2023-03-23T19:34:27;99833.75;;;14.17;81.49
10897;BME280;5501;51.176;6.470;2023-03-23T19:39:30;99820.75;;;14.11;81.69
10897;BME280;5501;51.176;6.470;2023-03-23T19:44:32;99815.84;;;14.03;82.88
10897;BME280;5501;51.176;6.470;2023-03-23T19:49:34;99807.53;;;14.08;82.50
10897;BME280;5501;51.176;6.470;2023-03-23T19:54:36;99792.56;;;14.21;81.92
10897;BME280;5501;51.176;6.470;2023-03-23T19:59:38;99790.31;;;14.29;81.81
10897;BME280;5501;51.176;6.470;2023-03-23T20:04:40;99788.84;;;14.23;81.66
10897;BME280;5501;51.176;6.470;2023-03-23T20:09:41;99779.25;;;14.35;81.33
10897;BME280;5501;51.176;6.470;2023-03-23T20:14:43;99779.81;;;14.26;81.45
10897;BME280;5501;51.176;6.470;2023-03-23T20:19:45;99784.28;;;14.25;81.28
10897;BME280;5501;51.176;6.470;2023-03-23T20:24:47;99764.75;;;14.39;80.42
10897;BME280;5501;51.176;6.470;2023-03-23T20:29:49;99759.41;;;14.39;79.76
10897;BME280;5501;51.176;6.470;2023-03-23T20:34:52;99757.88;;;14.35;80.06
10897;BME280;5501;51.176;6.470;2023-03-23T20:39:53;99753.28;;;14.37;79.92
10897;BME280;5501;51.176;6.470;2023-03-23T20:44:55;99743.38;;;14.39;80.27
10897;BME280;5501;51.176;6.470;2023-03-23T20:49:57;99734.63;;;14.51;79.38
10897;BME280;5501;51.176;6.470;2023-03-23T20:54:58;99744.91;;;14.43;80.91
10897;BME280;5501;51.176;6.470;2023-03-23T21:00:01;99741.41;;;14.27;81.95
10897;BME280;5501;51.176;6.470;2023-03-23T21:05:06;99734.50;;;14.23;82.96
10897;BME280;5501;51.176;6.470;2023-03-23T21:10:09;99740.94;;;14.19;84.21
10897;BME280;5501;51.176;6.470;2023-03-23T21:15:10;99749.06;;;14.33;83.25
10897;BME280;5501;51.176;6.470;2023-03-23T21:20:12;99754.16;;;14.37;83.08
10897;BME280;5501;51.176;6.470;2023-03-23T21:25:13;99744.50;;;14.35;82.32
10897;BME280;5501;51.176;6.470;2023-03-23T21:30:15;99728.28;;;14.38;82.73
10897;BME280;5501;51.176;6.470;2023-03-23T21:35:16;99732.25;;;14.31;83.54
10897;BME280;5501;51.176;6.470;2023-03-23T21:40:18;99731.84;;;14.23;84.65
10897;BME280;5501;51.176;6.470;2023-03-23T21:45:20;99739.06;;;14.36;84.67
10897;BME280;5501;51.176;6.470;2023-03-23T21:50:22;99737.19;;;14.23;85.90
10897;BME280;5501;51.176;6.470;2023-03-23T21:55:24;99725.00;;;14.17;87.58
10897;BME280;5501;51.176;6.470;2023-03-23T22:00:31;99719.69;;;14.02;89.23
10897;BME280;5501;51.176;6.470;2023-03-23T22:05:42;99720.81;;;13.98;90.00
10897;BME280;5501;51.176;6.470;2023-03-23T22:11:01;99709.06;;;13.85;92.89
10897;BME280;5501;51.176;6.470;2023-03-23T22:16:15;99697.56;;;13.69;95.19
10897;BME280;5501;51.176;6.470;2023-03-23T22:21:22;99699.69;;;13.62;96.74
10897;BME280;5501;51.176;6.470;2023-03-23T22:26:30;99686.59;;;13.58;98.77
10897;BME280;5501;51.176;6.470;2023-03-23T22:31:38;99680.31;;;13.59;100.00
10897;BME280;5501;51.176;6.470;2023-03-23T22:36:42;99664.97;;;13.47;100.00
10897;BME280;5501;51.176;6.470;2023-03-23T22:41:50;99648.59;;;13.37;100.00
10897;BME280;5501;51.176;6.470;2023-03-23T22:46:59;99654.59;;;13.25;100.00
10897;BME280;5501;51.176;6.470;2023-03-23T22:52:05;99634.66;;;13.17;100.00
10897;BME280;5501;51.176;6.470;2023-03-23T22:57:18;99642.72;;;13.31;100.00
10897;BME280;5501;51.176;6.470;2023-03-23T23:02:22;99630.84;;;13.21;100.00
10897;BME280;5501;51.176;6.470;2023-03-23T23:07:31;99616.88;;;13.16;100.00
10897;BME280;5501;51.176;6.470;2023-03-23T23:12:34;99614.03;;;13.19;100.00
10897;BME280;5501;51.176;6.470;2023-03-23T23:17:42;99604.84;;;13.24;100.00
10897;BME280;5501;51.176;6.470;2023-03-23T23:22:47;99596.13;;;13.05;100.00
10897;BME280;5501;51.176;6.470;2023-03-23T23:27:51;99586.41;;;13.20;100.00
10897;BME280;5501;51.176;6.470;2023-03-23T23:32:52;99578.59;;;13.17;100.00
10897;BME280;5501;51.176;6.470;2023-03-23T23:37:54;99585.91;;;13.29;100.00
10897;BME280;5501;51.176;6.470;2023-03-23T23:42:57;99580.06;;;13.22;100.00
10897;BME280;5501;51.176;6.470;2023-03-23T23:47:59;99573.47;;;13.28;100.00
10897;BME280;5501;51.176;6.470;2023-03-23T23:53:00;99570.75;;;13.14;100.00
10897;BME280;5501;51.176;6.470;2023-03-23T23:58:03;99568.81;;;13.16;100.00
